Terminal Aerodrome Forecast
Issued by NWS Bismarck, ND

Home | Current Version | Previous Version | Text Only | Print | Product List | Glossary Off
Versions: 1 2 3 4 5 6 7 8 9 10 11 12 13 14 15 16 17 18 19

000
FTUS43 KBIS 270300 AAA
TAFBIS
TAF AMD
KBIS 270314Z 2703/2724 31012G20KT P6SM FEW080
     FM270600 31009KT P6SM SCT090
     FM271100 34011KT P6SM BKN030
     FM271800 35012KT P6SM SCT250=

USA.gov is the U.S. government's official web portal to all federal, state and local government web resources and services.